»·PEaware :: N946S KAJO-KVCV

N946S :: KAJO-KVCV

FLIGHT INFORMATION

Flight Status: Arrived
Operator: Privately registered:
United States
More flights under this callsign
Pilot: Ethan S. (29221)
Aircraft: SOCATA TBM-900
(TBM9)
More flights by this aircraft type
Origin: KAJO Corona Mun
United States
Destination: KVCV Socal Logistics
United States
More flights between these airports :: More routes between these airports
Route: +PDZ V442 APLES
File this flight plan on PilotEdge
Remarks:
Altitude:
(Current/Filed)
9,000ft
Speed:
(Current/Filed)
240kts
Departed: 01-Dec-20 02:29 PM
Arrived: 01-Dec-20 03:13 PM
Distance/Time
Traveled:
43nm/0:44
Distance/Time
To Go:
Arrived

Flight Plot

Page will automatically refresh every two minutes.


Map Options




Map Legend


Flown Route
Filed Route
Departure Airport
Arrival Airport
Navaid (VOR, NDB)
Fix

Horizontal Profiles

Position Reports

Time Latitude Longitude Heading Altitude Ground
Speed
01-Dec-20 14:17 33.896943 -117.600576 178 536ft 0kts
01-Dec-20 14:18 33.896943 -117.600576 178 536ft 0kts
01-Dec-20 14:19 33.896943 -117.600576 178 536ft 0kts
01-Dec-20 14:20 33.896943 -117.600576 178 536ft 0kts
01-Dec-20 14:21 33.896943 -117.600576 178 536ft 0kts
01-Dec-20 14:22 33.896943 -117.600576 178 536ft 0kts
01-Dec-20 14:23 33.896943 -117.600576 178 536ft 0kts
01-Dec-20 14:24 33.897243 -117.601161 288 536ft 7kts
01-Dec-20 14:25 33.897237 -117.604324 269 536ft 13kts
01-Dec-20 14:26 33.897202 -117.607047 269 536ft 0kts
01-Dec-20 14:27 33.897447 -117.607598 1 536ft 7kts
01-Dec-20 14:28 33.897961 -117.584131 88 977ft 129kts
01-Dec-20 14:29 33.910368 -117.549744 65 2549ft 134kts
01-Dec-20 14:30 33.931563 -117.514841 51 4180ft 153kts
01-Dec-20 14:31 33.968197 -117.479385 357 6005ft 185kts
01-Dec-20 14:32 33.979089 -117.523973 217 6063ft 181kts
01-Dec-20 14:33 33.931867 -117.530723 175 5903ft 174kts
01-Dec-20 14:34 33.913679 -117.561788 324 6048ft 182kts
01-Dec-20 14:35 33.955667 -117.540521 43 6059ft 176kts
01-Dec-20 14:36 33.979047 -117.497057 127 6007ft 182kts
01-Dec-20 14:38 33.934937 -117.509696 224 6043ft 177kts
01-Dec-20 14:39 33.919418 -117.559154 320 6025ft 187kts
01-Dec-20 14:40 33.961935 -117.537465 44 7052ft 178kts
01-Dec-20 14:41 33.996637 -117.494483 41 9093ft 194kts
01-Dec-20 14:42 34.044556 -117.446567 17 9013ft 227kts
01-Dec-20 14:43 34.104402 -117.417772 24 9022ft 227kts
01-Dec-20 14:44 34.162592 -117.383255 26 8981ft 230kts
01-Dec-20 14:45 34.221768 -117.347561 26 8898ft 229kts
01-Dec-20 14:46 34.280401 -117.312135 26 8918ft 228kts
01-Dec-20 14:47 34.339026 -117.276664 26 8945ft 227kts
01-Dec-20 14:48 34.397681 -117.241209 25 8908ft 230kts
01-Dec-20 14:49 34.457472 -117.205490 25 7954ft 217kts
01-Dec-20 14:50 34.509126 -117.173484 27 7978ft 192kts
01-Dec-20 14:51 34.557816 -117.148488 0 8005ft 175kts
01-Dec-20 14:52 34.606750 -117.147138 0 8015ft 168kts
01-Dec-20 14:53 34.654455 -117.157345 341 8018ft 169kts
01-Dec-20 14:54 34.700586 -117.182428 330 6826ft 177kts
01-Dec-20 14:55 34.736115 -117.216053 310 6629ft 153kts
01-Dec-20 14:56 34.767007 -117.259890 301 6619ft 171kts
01-Dec-20 14:56 34.783617 -117.306035 284 6215ft 177kts
01-Dec-20 14:58 34.776691 -117.366608 201 5216ft 153kts
01-Dec-20 14:58 34.738879 -117.377894 182 5081ft 181kts
01-Dec-20 14:59 34.685473 -117.382347 183 4023ft 186kts
01-Dec-20 15:00 34.645163 -117.385457 184 3382ft 103kts
01-Dec-20 15:01 34.615225 -117.388472 186 3555ft 146kts
01-Dec-20 15:02 34.593071 -117.426716 300 5299ft 174kts
01-Dec-20 15:03 34.625847 -117.472075 312 6025ft 183kts
01-Dec-20 15:04 34.660757 -117.519191 312 6009ft 178kts
01-Dec-20 15:05 34.698546 -117.531450 36 6012ft 153kts
01-Dec-20 15:06 34.708522 -117.476037 121 4728ft 182kts
01-Dec-20 15:07 34.667561 -117.440639 144 3897ft 163kts
01-Dec-20 15:08 34.631869 -117.408986 150 3758ft 156kts
01-Dec-20 15:09 34.587339 -117.405156 179 3983ft 161kts
01-Dec-20 15:10 34.559099 -117.390477 82 3514ft 104kts
01-Dec-20 15:11 34.583560 -117.386399 359 2885ft 80kts
01-Dec-20 15:12 34.594675 -117.386215 46 2859ft 22kts
01-Dec-20 15:13 34.594883 -117.385175 89 2858ft 0kts
01-Dec-20 15:14 34.594288 -117.383304 136 2860ft 8kts
01-Dec-20 15:15 34.591648 -117.380057 135 2868ft 0kts
01-Dec-20 15:16 34.589639 -117.377577 132 2870ft 3kts
01-Dec-20 15:17 34.588122 -117.376566 316 2874ft 6kts
01-Dec-20 15:18 34.588138 -117.376585 316 2874ft 0kts
01-Dec-20 15:19 34.588138 -117.376585 316 2874ft 0kts
01-Dec-20 15:20 34.588138 -117.376585 316 2874ft 0kts
01-Dec-20 15:21 34.588138 -117.376585 316 2874ft 0kts

Navigation Log

Ident Type
Flight plan parsing failed, navigation log unavailable